Terminal Aerodrome Forecast
Issued by NWS

Home | Current Version | Previous Version | Text Only | Print | Product List | Glossary On
Versions: 1 2 3 4 5 6 7 8 9 10 11 12 13 14 15 16 17 18
000
FTUS43 KAPX 201752
TAFAPN
TAF
KAPN 201752Z 2018/2118 19010KT P6SM BKN140
     FM210000 20009KT P6SM BKN150 WS015/21040KT
     FM211300 22011G22KT P6SM BKN090 WS020/23040KT
     FM211600 24011G19KT P6SM BKN035=

USA.gov is the U.S. government's official web portal to all federal, state and local government web resources and services.